Time;durP1;ratioP1;P1;durP2;ratioP2;P2;SDS_P1;SDS_P2;PMS_P1;PMS_P2;Temp;Humidity;BMP_temperature;BMP_pressure;BME280_temperature;BME280_humidity;BME280_pressure;Samples;Min_cycle;Max_cycle;Signal;HPM_P1;HPM_P2
2022/03/25 00:01:17;;;;;;;21.05;13.00;;;;;;;;;;4982004;28;20184;-78
2022/03/25 00:03:43;;;;;;;23.90;12.98;;;;;;;;;;4983137;28;20186;-78
2022/03/25 00:06:10;;;;;;;27.88;14.45;;;;;;;;;;4983536;28;20211;-78
2022/03/25 00:08:35;;;;;;;25.85;14.35;;;;;;;;;;4983339;28;20192;-79
2022/03/25 00:11:02;;;;;;;21.35;14.30;;;;;;;;;;4984616;28;20219;-79
2022/03/25 00:13:28;;;;;;;22.35;14.02;;;;;;;;;;4995516;28;20592;-79
2022/03/25 00:15:54;;;;;;;21.85;15.50;;;;;;;;;;4976716;28;20215;-78
2022/03/25 00:18:20;;;;;;;20.63;14.13;;;;;;;;;;4982621;28;20255;-79
2022/03/25 00:20:48;;;;;;;19.90;14.35;;;;;;;;;;4982267;28;20186;-78
2022/03/25 00:23:15;;;;;;;21.10;13.65;;;;;;;;;;4983468;28;20179;-78
2022/03/25 00:25:41;;;;;;;24.23;16.02;;;;;;;;;;4985056;28;20183;-78
2022/03/25 00:28:07;;;;;;;23.70;14.30;;;;;;;;;;4986374;28;20203;-78
2022/03/25 00:30:33;;;;;;;19.23;14.25;;;;;;;;;;4981161;28;20196;-79
2022/03/25 00:32:59;;;;;;;21.05;14.48;;;;;;;;;;4975054;28;20187;-79
2022/03/25 00:35:26;;;;;;;27.27;15.27;;;;;;;;;;4986673;28;20208;-79
2022/03/25 00:37:52;;;;;;;22.08;14.48;;;;;;;;;;4985722;28;20954;-79
2022/03/25 00:40:18;;;;;;;22.17;16.02;;;;;;;;;;4998748;28;20248;-79
2022/03/25 00:42:44;;;;;;;27.40;16.13;;;;;;;;;;4979231;28;20196;-79
2022/03/25 00:45:10;;;;;;;22.88;14.85;;;;;;;;;;4985509;28;20285;-79
2022/03/25 00:47:36;;;;;;;25.42;14.95;;;;;;;;;;4985165;28;20633;-79
2022/03/25 00:50:03;;;;;;;26.77;14.45;;;;;;;;;;5000916;28;20211;-79
2022/03/25 00:52:29;;;;;;;26.33;16.42;;;;;;;;;;4986773;28;20194;-79
2022/03/25 00:54:55;;;;;;;29.90;16.20;;;;;;;;;;4981220;28;20276;-78
2022/03/25 00:57:21;;;;;;;21.98;15.10;;;;;;;;;;4976896;28;20188;-78
2022/03/25 00:59:47;;;;;;;27.75;16.23;;;;;;;;;;4985493;28;20283;-78
2022/03/25 01:02:13;;;;;;;21.80;15.18;;;;;;;;;;4986323;28;20180;-78
2022/03/25 01:04:39;;;;;;;26.00;15.07;;;;;;;;;;4986744;28;20185;-78
2022/03/25 01:07:05;;;;;;;29.00;15.35;;;;;;;;;;4981322;28;20194;-78
2022/03/25 01:09:31;;;;;;;22.80;13.75;;;;;;;;;;4978428;28;20215;-78
2022/03/25 01:11:57;;;;;;;25.02;15.88;;;;;;;;;;4985570;28;20234;-78
2022/03/25 01:14:23;;;;;;;22.73;15.07;;;;;;;;;;5000149;28;20194;-78
2022/03/25 01:16:49;;;;;;;24.20;14.82;;;;;;;;;;4985024;28;20632;-78
2022/03/25 01:19:15;;;;;;;22.63;15.05;;;;;;;;;;4985763;28;20192;-79
2022/03/25 01:21:41;;;;;;;20.85;16.15;;;;;;;;;;4981428;28;20196;-79
2022/03/25 01:24:07;;;;;;;23.95;15.80;;;;;;;;;;4978032;28;20252;-79
2022/03/25 01:26:33;;;;;;;20.80;13.70;;;;;;;;;;4985622;28;20183;-78
2022/03/25 01:28:59;;;;;;;25.42;15.13;;;;;;;;;;4997633;28;20243;-78
2022/03/25 01:31:25;;;;;;;23.50;15.20;;;;;;;;;;4985626;28;20191;-78
2022/03/25 01:33:51;;;;;;;23.35;15.15;;;;;;;;;;4980998;28;20193;-79
2022/03/25 01:36:19;;;;;;;24.00;15.30;;;;;;;;;;4991196;28;20235;-78
2022/03/25 01:38:45;;;;;;;25.23;14.90;;;;;;;;;;4984189;28;20192;-78
2022/03/25 01:41:11;;;;;;;29.23;15.68;;;;;;;;;;4998573;28;20172;-78
2022/03/25 01:43:37;;;;;;;29.02;17.75;;;;;;;;;;4986229;28;20186;-79
2022/03/25 01:46:03;;;;;;;25.08;16.35;;;;;;;;;;4980368;28;20197;-78
2022/03/25 01:48:29;;;;;;;25.73;15.80;;;;;;;;;;4992266;28;20188;-78
2022/03/25 01:50:55;;;;;;;26.95;16.15;;;;;;;;;;4985131;28;20180;-78
2022/03/25 01:53:26;;;;;;;23.48;14.75;;;;;;;;;;4985090;28;20176;-78
2022/03/25 01:55:59;;;;;;;25.40;15.13;;;;;;;;;;4984092;28;20199;-78
2022/03/25 01:58:26;;;;;;;23.23;15.80;;;;;;;;;;4984117;28;20653;-78
2022/03/25 02:00:52;;;;;;;27.75;17.08;;;;;;;;;;4984062;28;20180;-78
2022/03/25 02:03:19;;;;;;;24.63;15.57;;;;;;;;;;4983387;28;20180;-78
2022/03/25 02:05:46;;;;;;;24.08;14.73;;;;;;;;;;4983123;28;20199;-78
2022/03/25 02:08:12;;;;;;;28.25;17.38;;;;;;;;;;4998403;28;20177;-78
2022/03/25 02:10:39;;;;;;;22.85;15.18;;;;;;;;;;4983474;28;20220;-78
2022/03/25 02:13:05;;;;;;;22.45;15.00;;;;;;;;;;4984740;28;20203;-78
2022/03/25 02:15:32;;;;;;;25.25;15.82;;;;;;;;;;4984277;28;20349;-78
2022/03/25 02:17:58;;;;;;;23.02;14.90;;;;;;;;;;4982882;28;20555;-78
2022/03/25 02:20:24;;;;;;;27.45;17.38;;;;;;;;;;4981851;28;20641;-78
2022/03/25 02:22:50;;;;;;;27.50;15.32;;;;;;;;;;4984277;28;20176;-78
2022/03/25 02:25:20;;;;;;;29.08;16.63;;;;;;;;;;4984246;28;20242;-78
2022/03/25 02:27:48;;;;;;;28.35;16.10;;;;;;;;;;4984008;28;20187;-78
2022/03/25 02:30:14;;;;;;;30.40;17.63;;;;;;;;;;4984710;28;20238;-78
2022/03/25 02:32:40;;;;;;;22.73;16.20;;;;;;;;;;4984749;28;20184;-78
2022/03/25 02:35:06;;;;;;;27.58;16.08;;;;;;;;;;4984683;28;20230;-78
2022/03/25 02:37:33;;;;;;;24.98;16.33;;;;;;;;;;4982143;28;20183;-78
2022/03/25 02:39:59;;;;;;;21.08;14.60;;;;;;;;;;4981302;28;20183;-78
2022/03/25 02:42:25;;;;;;;23.90;15.70;;;;;;;;;;4982265;28;20702;-78
2022/03/25 02:44:51;;;;;;;29.60;16.80;;;;;;;;;;4983067;28;20219;-78
2022/03/25 02:47:17;;;;;;;28.83;16.00;;;;;;;;;;4983059;28;20448;-78
2022/03/25 02:49:43;;;;;;;28.60;15.77;;;;;;;;;;4984090;28;20187;-78
2022/03/25 02:52:09;;;;;;;26.85;16.25;;;;;;;;;;4980015;28;20563;-78
2022/03/25 02:54:36;;;;;;;27.40;16.70;;;;;;;;;;4976622;28;20211;-78
2022/03/25 02:57:02;;;;;;;25.75;15.75;;;;;;;;;;4982533;28;20203;-78
2022/03/25 02:59:28;;;;;;;28.00;16.48;;;;;;;;;;4984339;28;20183;-78
2022/03/25 03:01:54;;;;;;;23.60;15.10;;;;;;;;;;4985297;28;20203;-78
2022/03/25 03:04:21;;;;;;;28.15;16.15;;;;;;;;;;4979765;28;20192;-78
2022/03/25 03:06:47;;;;;;;28.45;17.02;;;;;;;;;;4988056;28;20485;-78
2022/03/25 03:09:13;;;;;;;27.00;16.97;;;;;;;;;;4972904;28;20466;-78
2022/03/25 03:11:38;;;;;;;27.90;16.25;;;;;;;;;;4982626;28;20471;-78
2022/03/25 03:14:05;;;;;;;30.33;17.05;;;;;;;;;;4996219;28;20177;-78
2022/03/25 03:16:31;;;;;;;25.48;15.30;;;;;;;;;;4984175;28;20212;-78
2022/03/25 03:18:57;;;;;;;26.40;15.73;;;;;;;;;;4982081;28;20211;-78
2022/03/25 03:21:24;;;;;;;29.67;17.17;;;;;;;;;;4982381;28;20186;-78
2022/03/25 03:23:53;;;;;;;25.52;16.40;;;;;;;;;;4983200;28;20454;-78
2022/03/25 03:26:20;;;;;;;25.17;14.15;;;;;;;;;;4998061;28;20184;-78
2022/03/25 03:28:46;;;;;;;28.13;16.73;;;;;;;;;;4985240;28;20271;-79
2022/03/25 03:31:12;;;;;;;29.98;18.77;;;;;;;;;;4983001;28;20191;-78
2022/03/25 03:33:38;;;;;;;33.45;17.58;;;;;;;;;;4979338;28;20200;-78
2022/03/25 03:36:04;;;;;;;22.65;15.40;;;;;;;;;;4972505;28;20284;-78
2022/03/25 03:38:31;;;;;;;28.45;16.73;;;;;;;;;;4982796;28;20188;-78
2022/03/25 03:40:57;;;;;;;29.58;18.90;;;;;;;;;;4984554;28;20176;-78
2022/03/25 03:43:23;;;;;;;27.17;16.02;;;;;;;;;;4980187;28;20247;-78
2022/03/25 03:45:49;;;;;;;25.58;16.58;;;;;;;;;;4993320;28;20192;-78
2022/03/25 03:48:15;;;;;;;26.45;16.65;;;;;;;;;;4983704;28;20216;-78
2022/03/25 03:50:41;;;;;;;28.40;18.45;;;;;;;;;;4983334;28;20218;-78
2022/03/25 03:53:07;;;;;;;31.73;17.92;;;;;;;;;;4983469;28;20190;-78
2022/03/25 03:55:33;;;;;;;29.92;17.08;;;;;;;;;;4984385;28;20210;-78
2022/03/25 03:57:59;;;;;;;27.27;17.25;;;;;;;;;;4978779;28;20189;-78
2022/03/25 04:00:25;;;;;;;26.55;16.73;;;;;;;;;;4975284;28;20194;-78
2022/03/25 04:02:51;;;;;;;34.75;16.30;;;;;;;;;;4987389;28;20192;-78
2022/03/25 04:05:17;;;;;;;24.90;16.23;;;;;;;;;;4986745;28;20254;-78
2022/03/25 04:07:44;;;;;;;33.97;18.10;;;;;;;;;;4987282;28;20183;-78
2022/03/25 04:10:11;;;;;;;31.13;18.98;;;;;;;;;;4976425;28;20191;-78
2022/03/25 04:12:37;;;;;;;28.40;17.27;;;;;;;;;;4980253;28;20233;-78
2022/03/25 04:15:04;;;;;;;32.80;17.15;;;;;;;;;;4985570;28;20234;-78
2022/03/25 04:17:30;;;;;;;31.02;18.20;;;;;;;;;;4986458;28;20187;-79
2022/03/25 04:19:56;;;;;;;36.20;18.52;;;;;;;;;;4987769;28;20178;-79
2022/03/25 04:22:22;;;;;;;22.58;15.40;;;;;;;;;;4984781;28;20188;-78
2022/03/25 04:24:48;;;;;;;29.33;18.40;;;;;;;;;;4998647;28;20642;-78
2022/03/25 04:27:14;;;;;;;30.33;17.40;;;;;;;;;;4976182;28;20467;-78
2022/03/25 04:29:40;;;;;;;30.08;17.02;;;;;;;;;;4985314;28;20270;-79
2022/03/25 04:32:06;;;;;;;31.90;17.95;;;;;;;;;;4987420;28;20211;-78
2022/03/25 04:34:33;;;;;;;29.65;17.73;;;;;;;;;;4987257;28;20198;-78
2022/03/25 04:36:58;;;;;;;26.45;14.82;;;;;;;;;;4981742;28;20255;-78
2022/03/25 04:39:24;;;;;;;25.60;16.30;;;;;;;;;;4978043;28;20187;-78
2022/03/25 04:41:50;;;;;;;31.55;18.02;;;;;;;;;;4984570;28;20180;-78
2022/03/25 04:44:16;;;;;;;31.58;19.13;;;;;;;;;;4986782;28;20637;-78
2022/03/25 04:46:42;;;;;;;25.45;15.30;;;;;;;;;;4986670;28;20168;-78
2022/03/25 04:49:09;;;;;;;30.70;18.58;;;;;;;;;;4977563;28;20189;-78
2022/03/25 04:51:35;;;;;;;29.15;16.83;;;;;;;;;;4984306;28;20184;-78
2022/03/25 04:54:01;;;;;;;30.85;19.38;;;;;;;;;;4985093;28;20195;-78
2022/03/25 04:56:27;;;;;;;36.40;17.48;;;;;;;;;;4985752;28;20242;-78
2022/03/25 04:58:53;;;;;;;30.00;17.23;;;;;;;;;;4986089;28;20172;-78
2022/03/25 05:01:19;;;;;;;30.77;17.25;;;;;;;;;;4985543;28;20187;-78
2022/03/25 05:03:45;;;;;;;31.00;17.75;;;;;;;;;;4981646;28;20196;-78
2022/03/25 05:06:11;;;;;;;29.90;17.75;;;;;;;;;;4975629;28;20191;-78
2022/03/25 05:08:37;;;;;;;30.80;18.13;;;;;;;;;;4986322;28;20223;-78
2022/03/25 05:11:03;;;;;;;31.10;15.55;;;;;;;;;;4998350;28;20220;-78
2022/03/25 05:13:29;;;;;;;34.47;20.30;;;;;;;;;;4984212;28;20180;-78
2022/03/25 05:15:55;;;;;;;36.90;17.48;;;;;;;;;;4996931;28;20576;-78
2022/03/25 05:18:23;;;;;;;31.85;18.80;;;;;;;;;;4977463;28;20191;-78
2022/03/25 05:20:49;;;;;;;27.70;17.08;;;;;;;;;;4984245;28;20191;-78
2022/03/25 05:23:16;;;;;;;30.23;17.67;;;;;;;;;;4985871;28;20183;-78
2022/03/25 05:25:42;;;;;;;32.72;18.20;;;;;;;;;;4985987;28;20180;-79
2022/03/25 05:28:08;;;;;;;32.22;17.50;;;;;;;;;;4985920;28;20184;-78
2022/03/25 05:30:35;;;;;;;31.52;16.83;;;;;;;;;;4983191;28;20617;-78
2022/03/25 05:33:01;;;;;;;28.55;18.63;;;;;;;;;;4984226;28;20194;-78
2022/03/25 05:35:28;;;;;;;26.27;17.67;;;;;;;;;;5000203;28;20231;-78
2022/03/25 05:37:54;;;;;;;33.65;16.23;;;;;;;;;;4985653;28;20195;-78
2022/03/25 05:40:21;;;;;;;39.08;17.27;;;;;;;;;;4997583;28;20271;-78
2022/03/25 05:42:47;;;;;;;35.58;16.38;;;;;;;;;;4980062;28;20498;-78
2022/03/25 05:45:14;;;;;;;29.80;16.08;;;;;;;;;;4983860;28;20199;-78
2022/03/25 05:47:40;;;;;;;27.15;16.92;;;;;;;;;;4985075;28;20183;-78
2022/03/25 05:50:07;;;;;;;32.08;18.60;;;;;;;;;;4984605;28;20180;-78
2022/03/25 05:52:33;;;;;;;37.42;19.27;;;;;;;;;;4985123;28;20207;-78
2022/03/25 05:55:00;;;;;;;31.45;16.90;;;;;;;;;;4976553;28;20219;-78
2022/03/25 05:57:26;;;;;;;29.70;19.27;;;;;;;;;;4991606;28;20184;-78
2022/03/25 05:59:52;;;;;;;29.95;16.88;;;;;;;;;;4998986;28;20196;-79
2022/03/25 06:02:18;;;;;;;32.13;18.20;;;;;;;;;;4998001;28;20204;-78
2022/03/25 06:04:45;;;;;;;31.48;17.48;;;;;;;;;;4985200;28;20207;-78
2022/03/25 06:07:12;;;;;;;30.75;18.00;;;;;;;;;;4974609;28;20219;-78
2022/03/25 06:09:38;;;;;;;37.58;17.40;;;;;;;;;;4983794;28;20187;-78
2022/03/25 06:12:06;;;;;;;30.55;17.05;;;;;;;;;;4982919;28;20224;-78
2022/03/25 06:14:32;;;;;;;26.30;16.25;;;;;;;;;;4984550;28;20586;-78
2022/03/25 06:16:58;;;;;;;28.47;16.97;;;;;;;;;;4983679;28;20172;-78
2022/03/25 06:19:24;;;;;;;32.58;17.58;;;;;;;;;;4984563;28;20446;-78
2022/03/25 06:21:50;;;;;;;33.50;17.97;;;;;;;;;;4984393;28;20184;-78
2022/03/25 06:24:17;;;;;;;30.63;17.80;;;;;;;;;;4984408;28;20438;-78
2022/03/25 06:26:43;;;;;;;30.60;17.52;;;;;;;;;;4983435;28;20266;-78
2022/03/25 06:29:09;;;;;;;38.20;18.25;;;;;;;;;;4984867;28;20641;-79
2022/03/25 06:31:36;;;;;;;29.15;17.30;;;;;;;;;;4983751;28;20179;-78
2022/03/25 06:34:03;;;;;;;38.25;20.17;;;;;;;;;;4983900;28;20673;-78
2022/03/25 06:36:29;;;;;;;29.27;15.73;;;;;;;;;;4982791;28;20204;-78
2022/03/25 06:38:55;;;;;;;29.65;18.23;;;;;;;;;;4983909;28;20258;-78
2022/03/25 06:41:22;;;;;;;34.13;18.40;;;;;;;;;;4983451;28;20545;-78
2022/03/25 06:43:49;;;;;;;28.17;17.80;;;;;;;;;;4985303;28;20251;-78
2022/03/25 06:46:17;;;;;;;38.35;17.67;;;;;;;;;;4982900;28;20243;-78
2022/03/25 06:48:43;;;;;;;31.15;17.25;;;;;;;;;;4995667;28;20203;-78
2022/03/25 06:51:09;;;;;;;33.80;18.92;;;;;;;;;;4972292;28;20194;-77
2022/03/25 06:53:35;;;;;;;27.17;16.55;;;;;;;;;;4984597;28;20192;-78
2022/03/25 06:56:02;;;;;;;31.63;18.17;;;;;;;;;;4996971;28;20200;-78
2022/03/25 06:58:28;;;;;;;30.48;18.25;;;;;;;;;;4983765;28;20179;-78
2022/03/25 07:00:54;;;;;;;33.35;18.27;;;;;;;;;;4983372;28;20187;-78
2022/03/25 07:03:20;;;;;;;36.65;17.45;;;;;;;;;;4982726;28;20184;-78
2022/03/25 07:05:46;;;;;;;32.72;17.30;;;;;;;;;;4984204;28;20191;-78
2022/03/25 07:08:12;;;;;;;37.42;19.27;;;;;;;;;;4982761;28;20585;-78
2022/03/25 07:10:39;;;;;;;31.55;18.95;;;;;;;;;;4979256;28;20701;-78
2022/03/25 07:13:05;;;;;;;41.60;19.98;;;;;;;;;;4980082;28;20183;-78
2022/03/25 07:15:31;;;;;;;35.03;21.40;;;;;;;;;;4982557;28;20233;-78
2022/03/25 07:17:57;;;;;;;35.88;19.35;;;;;;;;;;4982636;28;20180;-79
2022/03/25 07:20:25;;;;;;;34.65;20.17;;;;;;;;;;4983389;28;20242;-79
2022/03/25 07:22:52;;;;;;;45.17;20.83;;;;;;;;;;4983146;28;20372;-79
2022/03/25 07:25:18;;;;;;;38.75;19.38;;;;;;;;;;4983174;28;20255;-79
2022/03/25 07:27:45;;;;;;;32.55;18.77;;;;;;;;;;4995392;28;20196;-79
2022/03/25 07:30:11;;;;;;;35.05;20.35;;;;;;;;;;4977587;28;20235;-79
2022/03/25 07:32:38;;;;;;;36.80;21.05;;;;;;;;;;4983851;28;20215;-79
2022/03/25 07:35:04;;;;;;;36.72;20.65;;;;;;;;;;4998709;28;20211;-79
2022/03/25 07:37:30;;;;;;;36.85;21.73;;;;;;;;;;4987597;28;20641;-79
2022/03/25 07:39:56;;;;;;;35.80;20.58;;;;;;;;;;4982437;28;20204;-79
2022/03/25 07:42:22;;;;;;;43.28;21.38;;;;;;;;;;4993611;28;20190;-79
2022/03/25 07:44:49;;;;;;;34.58;21.63;;;;;;;;;;5000961;28;20192;-79
2022/03/25 07:47:15;;;;;;;35.97;22.08;;;;;;;;;;4980832;28;20203;-79
2022/03/25 07:49:42;;;;;;;39.23;21.40;;;;;;;;;;4986340;28;20188;-78
2022/03/25 07:52:08;;;;;;;41.72;22.13;;;;;;;;;;4985334;28;20439;-79
2022/03/25 07:54:35;;;;;;;44.90;24.42;;;;;;;;;;4986610;28;20687;-79
2022/03/25 07:57:01;;;;;;;37.10;21.73;;;;;;;;;;4985001;28;20203;-77
2022/03/25 07:59:28;;;;;;;36.35;21.75;;;;;;;;;;4984905;28;20194;-78
2022/03/25 08:01:54;;;;;;;32.35;20.95;;;;;;;;;;4985219;28;20180;-77
2022/03/25 08:04:21;;;;;;;34.65;22.65;;;;;;;;;;4987041;28;20184;-78
2022/03/25 08:06:48;;;;;;;38.75;21.85;;;;;;;;;;4982628;28;20216;-78
2022/03/25 08:09:14;;;;;;;40.33;22.85;;;;;;;;;;4981827;28;20184;-78
2022/03/25 08:11:40;;;;;;;39.03;20.77;;;;;;;;;;4984852;28;20234;-77
2022/03/25 08:14:06;;;;;;;33.08;21.05;;;;;;;;;;5001097;28;20456;-79
2022/03/25 08:16:33;;;;;;;40.60;22.77;;;;;;;;;;4986762;28;20227;-78
2022/03/25 08:18:59;;;;;;;37.25;21.42;;;;;;;;;;4984919;28;20785;-78
2022/03/25 08:21:25;;;;;;;39.87;24.47;;;;;;;;;;4985754;28;20188;-79
2022/03/25 08:29:23;;;;;;;40.70;23.50;;;;;;;;;;4986225;28;20227;-78
2022/03/25 08:31:49;;;;;;;46.50;23.83;;;;;;;;;;4986009;28;20176;-78
2022/03/25 08:34:15;;;;;;;39.55;22.75;;;;;;;;;;4998766;28;20195;-78
2022/03/25 08:36:41;;;;;;;35.60;22.38;;;;;;;;;;4980070;28;20214;-78
2022/03/25 08:39:07;;;;;;;39.60;25.20;;;;;;;;;;4999693;28;20188;-78
2022/03/25 08:41:34;;;;;;;45.80;23.10;;;;;;;;;;4983672;28;20208;-78
2022/03/25 08:43:59;;;;;;;38.53;23.70;;;;;;;;;;4999727;28;20660;-78
2022/03/25 08:46:25;;;;;;;37.17;23.80;;;;;;;;;;4983303;28;20192;-78
2022/03/25 08:48:52;;;;;;;40.10;25.17;;;;;;;;;;4981211;28;20439;-78
2022/03/25 08:51:18;;;;;;;37.50;23.73;;;;;;;;;;4983193;28;20207;-77
2022/03/25 08:53:45;;;;;;;47.42;24.20;;;;;;;;;;5000757;28;20192;-78
2022/03/25 08:56:12;;;;;;;47.70;25.45;;;;;;;;;;4984227;28;20302;-78
2022/03/25 08:58:39;;;;;;;38.35;24.05;;;;;;;;;;4984339;28;20227;-77
2022/03/25 09:01:05;;;;;;;39.92;26.00;;;;;;;;;;4984852;28;20191;-78
2022/03/25 09:03:31;;;;;;;40.63;24.10;;;;;;;;;;4983358;28;20933;-78
2022/03/25 09:05:57;;;;;;;48.10;26.45;;;;;;;;;;4986406;28;20188;-78
2022/03/25 09:08:23;;;;;;;40.55;26.13;;;;;;;;;;4982637;28;20208;-77
2022/03/25 09:10:49;;;;;;;43.37;24.23;;;;;;;;;;4984401;28;20215;-79
2022/03/25 09:13:15;;;;;;;42.70;25.35;;;;;;;;;;4983980;28;20522;-77
2022/03/25 09:15:41;;;;;;;43.58;25.63;;;;;;;;;;4981887;28;20259;-78
2022/03/25 09:18:07;;;;;;;42.92;25.33;;;;;;;;;;4979649;28;20549;-78
2022/03/25 09:20:33;;;;;;;39.03;24.08;;;;;;;;;;4985974;28;20194;-78
2022/03/25 09:22:59;;;;;;;45.38;26.70;;;;;;;;;;4982028;28;20236;-78
2022/03/25 09:25:26;;;;;;;47.25;28.05;;;;;;;;;;4984206;28;20195;-78
2022/03/25 09:27:52;;;;;;;45.20;25.73;;;;;;;;;;4982138;28;20222;-78
2022/03/25 09:30:18;;;;;;;42.58;26.05;;;;;;;;;;4985406;28;20184;-78
2022/03/25 09:32:44;;;;;;;45.17;25.25;;;;;;;;;;4985342;28;20202;-79
2022/03/25 09:35:10;;;;;;;40.70;25.07;;;;;;;;;;4985473;28;20282;-77
2022/03/25 09:37:37;;;;;;;53.08;25.88;;;;;;;;;;4983876;28;20462;-77
2022/03/25 09:40:08;;;;;;;45.15;25.42;;;;;;;;;;4996805;28;20223;-80
2022/03/25 09:42:34;;;;;;;41.28;26.75;;;;;;;;;;4976549;28;20715;-77
2022/03/25 09:45:01;;;;;;;46.28;27.55;;;;;;;;;;5000821;28;20192;-79
2022/03/25 09:47:30;;;;;;;43.03;25.80;;;;;;;;;;4985277;28;20188;-77
2022/03/25 09:49:56;;;;;;;47.03;26.88;;;;;;;;;;4986290;28;20179;-77
2022/03/25 09:52:22;;;;;;;39.90;27.75;;;;;;;;;;4985270;28;20190;-81
2022/03/25 09:54:48;;;;;;;42.63;25.92;;;;;;;;;;4984529;28;20223;-78
2022/03/25 09:57:14;;;;;;;43.47;27.10;;;;;;;;;;4985465;28;20179;-77
2022/03/25 09:59:40;;;;;;;44.47;27.20;;;;;;;;;;4984724;28;20182;-77
2022/03/25 10:02:06;;;;;;;44.75;27.42;;;;;;;;;;4997134;28;20906;-79
2022/03/25 10:04:39;;;;;;;46.25;27.40;;;;;;;;;;4985609;28;20542;-76
2022/03/25 10:07:15;;;;;;;45.72;28.65;;;;;;;;;;4980469;28;20650;-77
2022/03/25 10:09:41;;;;;;;48.67;27.05;;;;;;;;;;4988566;28;20225;-77
2022/03/25 10:12:24;;;;;;;42.53;27.40;;;;;;;;;;4973824;28;20248;-75
2022/03/25 10:14:51;;;;;;;45.67;27.85;;;;;;;;;;4985397;28;20469;-77
2022/03/25 10:17:18;;;;;;;49.05;29.48;;;;;;;;;;4997905;28;20176;-78
2022/03/25 10:19:54;;;;;;;45.90;28.20;;;;;;;;;;4984745;28;20189;-77
2022/03/25 10:22:20;;;;;;;46.47;28.00;;;;;;;;;;4984502;28;20186;-80
2022/03/25 10:24:52;;;;;;;44.25;28.52;;;;;;;;;;4983949;28;20223;-77
2022/03/25 10:27:28;;;;;;;46.95;28.55;;;;;;;;;;4984927;28;20212;-80
2022/03/25 10:29:54;;;;;;;49.35;28.02;;;;;;;;;;4984723;28;22340;-80
2022/03/25 10:32:25;;;;;;;49.65;29.65;;;;;;;;;;4998587;28;20187;-77
2022/03/25 10:35:01;;;;;;;45.28;28.98;;;;;;;;;;4985894;28;20208;-79
2022/03/25 10:37:28;;;;;;;42.22;27.98;;;;;;;;;;4984213;28;20183;-76
2022/03/25 10:39:54;;;;;;;44.80;29.13;;;;;;;;;;4979359;28;20180;-79
2022/03/25 10:42:20;;;;;;;40.17;28.23;;;;;;;;;;4974998;28;20187;-76
2022/03/25 10:44:46;;;;;;;41.92;27.25;;;;;;;;;;4984308;28;20201;-77
2022/03/25 10:47:16;;;;;;;41.17;28.25;;;;;;;;;;4984040;28;20296;-78
2022/03/25 10:49:47;;;;;;;42.38;29.30;;;;;;;;;;4983864;28;20179;-77
2022/03/25 10:52:31;;;;;;;46.70;30.40;;;;;;;;;;4995616;28;20300;-79
2022/03/25 10:55:16;;;;;;;44.10;27.73;;;;;;;;;;4978942;28;20203;-79
2022/03/25 10:57:51;;;;;;;43.90;28.30;;;;;;;;;;4995861;28;20203;-78
2022/03/25 11:00:17;;;;;;;46.28;29.85;;;;;;;;;;4974669;28;20183;-80
2022/03/25 11:02:46;;;;;;;44.50;29.63;;;;;;;;;;4984274;28;20183;-78
2022/03/25 11:05:13;;;;;;;42.80;29.40;;;;;;;;;;4997248;28;20172;-82
2022/03/25 11:07:41;;;;;;;44.33;28.00;;;;;;;;;;4984565;28;20180;-80
2022/03/25 11:10:07;;;;;;;44.42;29.25;;;;;;;;;;4982310;28;20274;-81
2022/03/25 11:12:33;;;;;;;45.33;29.40;;;;;;;;;;4983861;28;20231;-79
2022/03/25 11:15:00;;;;;;;44.55;28.05;;;;;;;;;;4982754;28;20566;-78
2022/03/25 11:17:27;;;;;;;42.50;28.02;;;;;;;;;;4983575;28;20184;-78
2022/03/25 11:19:54;;;;;;;46.33;30.55;;;;;;;;;;4983697;28;20176;-77
2022/03/25 11:22:21;;;;;;;45.90;30.00;;;;;;;;;;4983322;28;20184;-78
2022/03/25 11:24:52;;;;;;;46.80;28.38;;;;;;;;;;4983319;28;20231;-81
2022/03/25 11:27:24;;;;;;;38.78;27.90;;;;;;;;;;4981361;28;20188;-80
2022/03/25 11:30:00;;;;;;;41.58;29.27;;;;;;;;;;4983149;28;20195;-80
2022/03/25 11:32:26;;;;;;;38.63;27.60;;;;;;;;;;4982834;28;20240;-78
2022/03/25 11:34:55;;;;;;;44.05;29.88;;;;;;;;;;4979757;28;20214;-77
2022/03/25 11:37:24;;;;;;;43.08;28.60;;;;;;;;;;4981707;28;20198;-80
2022/03/25 11:40:09;;;;;;;41.50;29.27;;;;;;;;;;4978825;28;20226;-81
2022/03/25 11:42:45;;;;;;;41.30;29.20;;;;;;;;;;4976815;28;20180;-77
2022/03/25 11:45:21;;;;;;;41.40;27.88;;;;;;;;;;4998065;28;20239;-81
2022/03/25 11:48:03;;;;;;;40.65;27.48;;;;;;;;;;4983698;28;20269;-77
2022/03/25 11:50:34;;;;;;;37.80;27.40;;;;;;;;;;4996840;28;20188;-80
2022/03/25 11:53:23;;;;;;;35.83;25.80;;;;;;;;;;4984918;28;20177;-76
2022/03/25 11:55:53;;;;;;;37.47;26.50;;;;;;;;;;4991465;28;20214;-80
2022/03/25 11:58:19;;;;;;;36.53;25.90;;;;;;;;;;4983190;28;20475;-79
2022/03/25 12:00:48;;;;;;;37.33;27.60;;;;;;;;;;4978322;28;20511;-76
2022/03/25 12:03:15;;;;;;;37.77;29.17;;;;;;;;;;4981343;28;20759;-78
2022/03/25 12:05:58;;;;;;;37.57;26.30;;;;;;;;;;4996932;28;20459;-78
2022/03/25 12:08:24;;;;;;;36.50;24.00;;;;;;;;;;4982716;28;20444;-81
2022/03/25 12:10:51;;;;;;;36.13;26.20;;;;;;;;;;4983481;28;20521;-80
2022/03/25 12:13:17;;;;;;;36.30;26.90;;;;;;;;;;4982231;28;20448;-82
2022/03/25 12:15:44;;;;;;;35.30;26.63;;;;;;;;;;4978206;28;20543;-81
2022/03/25 12:18:29;;;;;;;34.73;27.73;;;;;;;;;;4980587;28;20466;-80
2022/03/25 12:20:55;;;;;;;35.10;27.30;;;;;;;;;;4978965;28;20461;-81
2022/03/25 12:23:21;;;;;;;32.67;24.00;;;;;;;;;;4979587;28;20434;-82
2022/03/25 12:25:47;;;;;;;33.07;25.17;;;;;;;;;;4985160;28;20406;-81
2022/03/25 12:28:13;;;;;;;31.10;23.70;;;;;;;;;;4986961;28;20913;-81
2022/03/25 12:30:39;;;;;;;44.33;30.07;;;;;;;;;;4981418;28;20449;-75
2022/03/25 12:33:08;;;;;;;36.40;27.17;;;;;;;;;;4986761;28;20420;-77
2022/03/25 12:35:36;;;;;;;85.43;35.73;;;;;;;;;;4985399;28;20472;-81
2022/03/25 12:38:20;;;;;;;36.00;29.20;;;;;;;;;;4982728;28;20499;-76
2022/03/25 12:40:46;;;;;;;31.77;26.90;;;;;;;;;;4984269;28;20424;-77
2022/03/25 12:43:12;;;;;;;40.83;27.37;;;;;;;;;;4976304;28;20446;-78
2022/03/25 12:45:51;;;;;;;29.27;24.50;;;;;;;;;;4983463;28;20431;-79
2022/03/25 12:48:19;;;;;;;31.73;27.40;;;;;;;;;;4984066;28;20878;-80
2022/03/25 12:50:46;;;;;;;29.10;25.10;;;;;;;;;;4984838;28;20470;-79
2022/03/25 12:53:12;;;;;;;33.60;24.90;;;;;;;;;;4999217;28;20834;-81
2022/03/25 12:55:38;;;;;;;31.60;27.77;;;;;;;;;;4985756;28;20474;-79
2022/03/25 12:58:09;;;;;;;31.63;27.10;;;;;;;;;;4986458;28;20515;-78
2022/03/25 13:00:42;;;;;;;34.00;30.10;;;;;;;;;;4981742;28;20465;-78
2022/03/25 13:03:09;;;;;;;34.27;30.07;;;;;;;;;;4989555;28;20435;-78
2022/03/25 13:05:36;;;;;;;39.83;30.80;;;;;;;;;;5000546;28;20463;-77
2022/03/25 13:08:02;;;;;;;32.53;28.10;;;;;;;;;;4986264;28;20427;-77
2022/03/25 13:10:29;;;;;;;33.10;28.77;;;;;;;;;;4973677;28;20499;-79
2022/03/25 13:12:55;;;;;;;33.37;28.97;;;;;;;;;;4983714;28;20531;-78
2022/03/25 13:15:28;;;;;;;40.87;34.57;;;;;;;;;;4985247;28;20503;-78
2022/03/25 13:17:55;;;;;;;35.60;31.80;;;;;;;;;;4985030;28;20957;-78
2022/03/25 13:20:27;;;;;;;39.07;34.07;;;;;;;;;;4985993;28;20435;-81
2022/03/25 13:22:58;;;;;;;38.00;32.57;;;;;;;;;;4987313;28;20432;-78
2022/03/25 13:25:33;;;;;;;36.33;31.70;;;;;;;;;;4986124;28;20431;-78
2022/03/25 13:28:00;;;;;;;36.43;32.70;;;;;;;;;;4985519;28;20446;-81
2022/03/25 13:30:27;;;;;;;38.00;33.07;;;;;;;;;;4985173;28;20523;-81
2022/03/25 13:33:16;;;;;;;34.47;29.53;;;;;;;;;;4983529;28;20431;-79
2022/03/25 13:35:53;;;;;;;34.63;29.70;;;;;;;;;;4982160;28;20478;-78
2022/03/25 13:38:19;;;;;;;31.90;28.63;;;;;;;;;;4999591;28;20436;-79
2022/03/25 13:40:49;;;;;;;32.60;28.70;;;;;;;;;;4986451;28;20421;-78
2022/03/25 13:43:16;;;;;;;32.23;28.97;;;;;;;;;;4980718;28;20557;-79
2022/03/25 13:45:43;;;;;;;32.77;27.87;;;;;;;;;;4978245;28;20447;-77
2022/03/25 13:48:14;;;;;;;32.00;28.50;;;;;;;;;;4983387;28;20481;-79
2022/03/25 13:50:47;;;;;;;30.07;26.80;;;;;;;;;;4981340;28;20486;-78
2022/03/25 13:53:14;;;;;;;30.80;26.67;;;;;;;;;;4983706;28;20423;-80
2022/03/25 13:55:42;;;;;;;34.53;28.57;;;;;;;;;;4984166;28;20467;-80
2022/03/25 13:58:31;;;;;;;32.67;26.83;;;;;;;;;;4980361;28;20801;-79
2022/03/25 14:00:57;;;;;;;28.90;25.17;;;;;;;;;;4996436;28;20445;-81
2022/03/25 14:03:32;;;;;;;30.97;25.67;;;;;;;;;;4999412;28;20540;-77
2022/03/25 14:06:11;;;;;;;28.13;25.20;;;;;;;;;;4984227;28;20485;-82
2022/03/25 14:08:37;;;;;;;29.37;25.63;;;;;;;;;;4984388;28;20439;-78
2022/03/25 14:11:04;;;;;;;25.30;22.70;;;;;;;;;;4984083;28;20471;-77
2022/03/25 14:13:30;;;;;;;26.10;23.30;;;;;;;;;;4984703;28;20442;-78
2022/03/25 14:16:12;;;;;;;26.10;22.90;;;;;;;;;;4982980;28;20482;-81
2022/03/25 14:18:47;;;;;;;27.63;24.83;;;;;;;;;;4983893;28;20466;-79
2022/03/25 14:21:22;;;;;;;28.57;24.20;;;;;;;;;;4984218;28;20438;-80
2022/03/25 14:23:48;;;;;;;25.37;22.67;;;;;;;;;;4984824;28;20507;-78